Time;durP1;ratioP1;P1;durP2;ratioP2;P2;SDS_P1;SDS_P2;PMS_P1;PMS_P2;Temp;Humidity;BMP_temperature;BMP_pressure;BME280_temperature;BME280_humidity;BME280_pressure;Samples;Min_cycle;Max_cycle;Signal;HPM_P1;HPM_P2
2022/03/23 00:01:13;;;;;;;18.38;14.43;;;;;;;6.84;34.36;100732.00;5065377;28;20351;-70
2022/03/23 00:03:46;;;;;;;23.27;14.82;;;;;;;6.48;34.98;100683.44;5066488;28;20047;-70
2022/03/23 00:06:19;;;;;;;21.90;14.10;;;;;;;5.58;34.80;100529.69;5048715;28;20045;-70
2022/03/23 00:08:52;;;;;;;18.05;13.68;;;;;;;6.35;35.37;100678.38;5065371;28;20087;-71
2022/03/23 00:11:25;;;;;;;19.73;13.65;;;;;;;6.54;35.28;100723.69;5065417;28;20116;-70
2022/03/23 00:13:58;;;;;;;23.80;14.77;;;;;;;6.55;35.28;100725.44;5065198;28;20297;-70
2022/03/23 00:16:31;;;;;;;19.42;13.70;;;;;;;6.52;35.76;100727.25;5066056;28;20207;-70
2022/03/23 00:19:06;;;;;;;23.38;13.73;;;;;;;6.19;35.26;100661.09;5065940;28;20052;-70
2022/03/23 00:21:35;;;;;;;18.90;14.15;;;;;;;6.55;35.18;100714.91;5065807;28;20052;-69
2022/03/23 00:24:07;;;;;;;20.98;12.68;;;;;;;5.06;36.36;100496.31;5065108;28;20098;-70
2022/03/23 00:26:35;;;;;;;22.95;14.25;;;;;;;5.56;35.98;100560.38;5065568;28;20057;-69
2022/03/23 00:29:06;;;;;;;22.48;13.18;;;;;;;6.44;35.37;100719.47;5064933;28;20048;-70
2022/03/23 00:31:37;;;;;;;17.17;14.02;;;;;;;6.05;35.27;100642.91;5065739;28;20315;-70
2022/03/23 00:34:08;;;;;;;20.95;14.10;;;;;;;6.37;36.43;100716.09;5065016;28;20040;-70
2022/03/23 00:36:37;;;;;;;22.05;13.63;;;;;;;6.32;35.94;100707.38;5069195;28;20098;-70
2022/03/23 00:39:08;;;;;;;20.88;13.07;;;;;;;6.34;35.92;100720.53;5069839;28;20041;-70
2022/03/23 00:41:37;;;;;;;18.10;12.23;;;;;;;5.17;35.81;100507.53;5069600;28;20041;-70
2022/03/23 00:44:07;;;;;;;23.00;13.50;;;;;;;6.24;36.50;100703.16;5069647;28;20041;-71
2022/03/23 00:46:38;;;;;;;22.52;14.48;;;;;;;6.20;35.61;100701.47;5068565;28;20053;-70
2022/03/23 00:49:09;;;;;;;22.60;15.68;;;;;;;6.17;36.26;100722.56;5051948;28;20049;-70
2022/03/23 00:51:38;;;;;;;20.15;13.68;;;;;;;6.13;36.52;100699.81;5069397;28;20047;-70
2022/03/23 00:54:11;;;;;;;21.85;12.95;;;;;;;5.82;36.88;100645.03;5068706;28;20041;-70
2022/03/23 00:56:38;;;;;;;15.68;12.02;;;;;;;5.74;36.60;100620.59;5068289;28;20063;-70
2022/03/23 00:59:09;;;;;;;18.85;11.70;;;;;;;6.10;36.64;100690.19;5068930;28;20289;-70
2022/03/23 01:01:39;;;;;;;16.95;12.52;;;;;;;6.18;36.49;100690.06;5077444;28;20068;-70
2022/03/23 01:04:09;;;;;;;19.02;12.40;;;;;;;5.31;36.25;100560.75;5088862;28;20353;-69
2022/03/23 01:06:39;;;;;;;15.52;12.75;;;;;;;6.08;36.92;100687.59;5089028;28;20054;-68
2022/03/23 01:09:10;;;;;;;19.00;13.48;;;;;;;5.71;37.37;100636.44;5088679;28;20036;-68
2022/03/23 01:11:40;;;;;;;19.98;12.77;;;;;;;6.07;36.42;100690.25;5089079;28;20040;-68
2022/03/23 01:14:09;;;;;;;22.83;12.35;;;;;;;5.70;37.38;100632.06;5071294;28;20063;-69
2022/03/23 01:16:40;;;;;;;18.30;13.35;;;;;;;6.03;36.59;100720.13;5088721;28;20064;-69
2022/03/23 01:19:10;;;;;;;14.32;10.90;;;;;;;5.99;36.68;100681.59;5088673;28;20086;-69
2022/03/23 01:21:40;;;;;;;20.25;12.30;;;;;;;5.93;36.85;100689.59;5088440;28;20040;-69
2022/03/23 01:24:11;;;;;;;16.45;11.75;;;;;;;5.91;37.55;100680.84;5088746;28;20041;-68
2022/03/23 01:26:40;;;;;;;19.00;11.50;;;;;;;4.08;37.82;100379.41;5088520;28;20047;-69
2022/03/23 01:29:11;;;;;;;18.05;11.00;;;;;;;5.57;37.61;100623.47;5088429;28;20204;-69
2022/03/23 01:31:40;;;;;;;17.98;11.80;;;;;;;5.67;37.70;100672.44;5088387;28;20044;-69
2022/03/23 01:34:10;;;;;;;21.85;13.45;;;;;;;5.67;37.23;100667.16;5070758;28;20060;-69
2022/03/23 01:36:41;;;;;;;14.88;11.48;;;;;;;5.31;37.12;100600.19;5088582;28;20064;-69
2022/03/23 01:39:12;;;;;;;19.73;13.32;;;;;;;5.71;37.59;100655.72;5070781;28;20041;-70
2022/03/23 01:41:41;;;;;;;16.88;11.05;;;;;;;5.44;37.64;100614.91;5088469;28;20394;-70
2022/03/23 01:44:17;;;;;;;15.27;10.68;;;;;;;5.59;39.35;100655.00;5088435;28;20242;-70
2022/03/23 01:47:00;;;;;;;15.38;11.15;;;;;;;5.46;40.11;100656.94;5069743;28;20255;-69
2022/03/23 01:49:33;;;;;;;19.25;10.88;;;;;;;5.40;38.01;100657.03;5070796;28;20036;-70
2022/03/23 01:52:07;;;;;;;14.40;10.82;;;;;;;5.34;37.94;100651.84;5071214;28;20040;-68
2022/03/23 01:54:42;;;;;;;16.83;11.38;;;;;;;5.33;38.24;100650.97;5088284;28;20103;-69
2022/03/23 01:57:16;;;;;;;18.70;11.15;;;;;;;5.41;37.69;100654.38;5070491;28;20048;-68
2022/03/23 01:59:49;;;;;;;18.42;11.75;;;;;;;5.33;38.81;100648.34;5087730;28;20048;-68
2022/03/23 02:02:21;;;;;;;15.77;10.35;;;;;;;5.29;37.78;100654.53;5087629;28;20129;-68
2022/03/23 02:04:54;;;;;;;15.40;11.60;;;;;;;5.24;38.72;100655.50;5087702;28;20042;-69
2022/03/23 02:07:27;;;;;;;19.05;10.40;;;;;;;5.24;38.34;100653.72;5087760;28;20185;-69
2022/03/23 02:10:00;;;;;;;17.27;11.25;;;;;;;5.32;38.52;100648.38;5087802;28;20052;-69
2022/03/23 02:12:33;;;;;;;17.70;10.48;;;;;;;5.26;38.11;100656.34;5087596;28;20048;-70
2022/03/23 02:15:13;;;;;;;14.90;9.88;;;;;;;4.87;40.15;100634.88;5087622;28;20090;-69
2022/03/23 02:17:47;;;;;;;14.63;10.40;;;;;;;5.12;38.29;100644.25;5087697;28;20047;-69
2022/03/23 02:20:20;;;;;;;14.80;9.20;;;;;;;5.12;39.32;100652.13;5087364;28;20082;-69
2022/03/23 02:22:54;;;;;;;19.50;10.95;;;;;;;5.11;38.61;100675.81;5070006;28;20040;-70
2022/03/23 02:25:30;;;;;;;17.17;11.15;;;;;;;4.83;38.46;100585.91;5087449;28;20070;-69
2022/03/23 02:28:03;;;;;;;17.02;11.07;;;;;;;5.11;38.56;100641.63;5069771;28;20038;-69
2022/03/23 02:30:35;;;;;;;16.58;11.23;;;;;;;4.69;38.24;100572.94;5087168;28;20300;-69
2022/03/23 02:33:09;;;;;;;17.10;9.82;;;;;;;5.05;38.65;100644.34;5053730;28;20049;-69
2022/03/23 02:35:42;;;;;;;16.15;10.57;;;;;;;5.01;38.80;100653.16;5087455;28;20103;-69
2022/03/23 02:38:16;;;;;;;15.63;9.80;;;;;;;5.00;39.47;100648.78;5087110;28;20040;-70
2022/03/23 02:40:49;;;;;;;13.52;9.15;;;;;;;4.97;38.87;100651.44;5087297;28;20354;-70
2022/03/23 02:43:21;;;;;;;13.98;9.93;;;;;;;4.90;38.99;100655.03;5087059;28;20040;-70
2022/03/23 02:45:53;;;;;;;15.57;10.65;;;;;;;4.91;39.11;100652.38;5087005;28;20037;-69
2022/03/23 02:48:26;;;;;;;14.45;10.00;;;;;;;4.92;39.31;100650.63;5086927;28;20050;-69
2022/03/23 02:50:58;;;;;;;15.52;9.85;;;;;;;4.28;38.69;100547.16;5087088;28;20040;-69
2022/03/23 03:02:21;;;;;;;16.05;10.00;;;;;;;4.88;38.90;100636.63;5086410;28;20060;-69
2022/03/23 03:04:54;;;;;;;13.20;9.77;;;;;;;4.86;38.80;100638.41;5086859;28;20040;-69
2022/03/23 03:07:26;;;;;;;14.68;9.65;;;;;;;4.87;38.81;100634.88;5086838;28;20045;-69
2022/03/23 03:10:00;;;;;;;14.15;9.15;;;;;;;4.80;39.60;100635.84;5086848;28;20036;-69
2022/03/23 03:12:33;;;;;;;13.70;10.13;;;;;;;4.80;38.87;100634.09;5086666;28;20049;-69
2022/03/23 03:15:06;;;;;;;18.23;10.45;;;;;;;4.42;39.57;100576.75;5086577;28;20040;-69
2022/03/23 03:17:38;;;;;;;17.10;9.02;;;;;;;4.39;39.06;100573.28;5086341;28;20050;-70
2022/03/23 03:20:11;;;;;;;18.42;9.20;;;;;;;4.70;39.98;100634.22;5086139;28;20037;-69
2022/03/23 03:22:45;;;;;;;16.02;10.98;;;;;;;4.68;39.52;100634.22;5086324;28;20037;-69
2022/03/23 03:25:20;;;;;;;13.23;9.32;;;;;;;3.75;39.50;100466.34;5086532;28;20071;-69
2022/03/23 03:27:53;;;;;;;18.45;10.05;;;;;;;4.40;39.08;100578.53;5086556;28;20300;-69
2022/03/23 03:30:25;;;;;;;15.02;8.70;;;;;;;4.27;39.68;100565.53;5086497;28;20044;-69
2022/03/23 03:32:57;;;;;;;18.52;9.38;;;;;;;4.67;39.24;100631.63;5086163;28;20036;-69
2022/03/23 03:35:29;;;;;;;16.92;9.63;;;;;;;4.68;39.23;100638.59;5086553;28;20041;-69
2022/03/23 03:38:02;;;;;;;17.73;8.73;;;;;;;4.34;39.25;100577.72;5086227;28;20243;-69
2022/03/23 03:40:35;;;;;;;14.98;8.63;;;;;;;4.60;39.68;100630.81;5086259;28;20378;-69
2022/03/23 03:43:08;;;;;;;14.50;8.98;;;;;;;4.47;40.36;100634.44;5086066;28;20292;-69
2022/03/23 03:45:40;;;;;;;12.55;8.73;;;;;;;4.42;39.93;100631.88;5068731;28;20063;-69
2022/03/23 03:48:13;;;;;;;20.80;9.95;;;;;;;4.42;39.63;100628.38;5068491;28;20037;-69
2022/03/23 03:50:46;;;;;;;10.65;7.35;;;;;;;4.07;40.18;100642.66;5085861;28;20040;-68
2022/03/23 03:53:18;;;;;;;19.80;10.25;;;;;;;4.38;40.48;100626.66;5085866;28;20072;-69
2022/03/23 03:55:52;;;;;;;14.07;10.20;;;;;;;4.34;40.56;100633.69;5086060;28;20100;-69
2022/03/23 03:58:25;;;;;;;14.32;9.32;;;;;;;4.35;40.13;100632.81;5085747;28;20036;-69
2022/03/23 04:00:57;;;;;;;14.15;9.75;;;;;;;4.41;40.29;100624.00;5085740;28;20040;-69
2022/03/23 04:03:29;;;;;;;14.48;9.98;;;;;;;4.43;40.32;100633.59;5068162;28;20047;-70
2022/03/23 04:06:02;;;;;;;16.05;10.07;;;;;;;4.44;40.61;100634.47;5085646;28;20040;-69
2022/03/23 04:08:35;;;;;;;12.00;8.23;;;;;;;4.18;40.33;100590.97;5085807;28;20066;-69
2022/03/23 04:11:09;;;;;;;12.90;9.73;;;;;;;4.40;40.30;100632.78;5085313;28;20136;-69
2022/03/23 04:13:41;;;;;;;15.30;9.45;;;;;;;4.45;40.00;100625.72;5085641;28;20039;-70
2022/03/23 04:16:14;;;;;;;12.82;9.02;;;;;;;4.47;40.07;100626.56;5085587;28;20044;-70
2022/03/23 04:18:46;;;;;;;14.38;9.70;;;;;;;4.43;40.67;100630.97;5069039;28;20098;-70
2022/03/23 04:21:19;;;;;;;11.65;9.70;;;;;;;4.43;39.82;100635.38;5068091;28;20293;-70
2022/03/23 04:23:51;;;;;;;16.90;10.95;;;;;;;4.41;40.19;100629.25;5067869;28;20040;-70
2022/03/23 04:26:25;;;;;;;17.15;9.85;;;;;;;4.37;40.43;100638.91;5068131;28;20289;-69
2022/03/23 04:28:57;;;;;;;13.88;8.57;;;;;;;4.44;39.89;100639.72;5068107;28;20219;-69
2022/03/23 04:31:29;;;;;;;13.70;8.68;;;;;;;4.44;39.74;100630.09;5085723;28;20207;-69
2022/03/23 04:34:02;;;;;;;13.45;8.73;;;;;;;4.40;39.79;100635.41;5068290;28;20036;-70
2022/03/23 04:36:37;;;;;;;11.98;8.05;;;;;;;4.46;39.90;100630.09;5085791;28;20048;-69
2022/03/23 04:39:08;;;;;;;;;;;;;;;4.38;42.37;100626.66;5086050;28;20346;-69
2022/03/23 04:41:42;;;;;;;15.18;8.90;;;;;;;4.42;40.17;100633.63;5085520;28;19916;-69
2022/03/23 04:44:14;;;;;;;13.82;8.82;;;;;;;4.45;40.71;100636.22;5085290;28;20103;-69
2022/03/23 04:46:44;;;;;;;15.07;10.65;;;;;;;4.07;41.18;100608.56;5085429;28;20169;-69
2022/03/23 04:49:15;;;;;;;13.40;9.68;;;;;;;4.33;40.13;100642.47;5067866;28;20044;-69
2022/03/23 04:51:45;;;;;;;14.98;10.90;;;;;;;2.76;40.17;100357.19;5085539;28;20045;-69
2022/03/23 04:54:15;;;;;;;18.17;10.52;;;;;;;4.06;40.79;100582.31;5068150;28;20052;-69
2022/03/23 04:56:46;;;;;;;14.63;11.00;;;;;;;4.35;40.42;100638.06;5085710;28;20048;-69
2022/03/23 04:59:15;;;;;;;14.35;10.30;;;;;;;4.05;40.92;100586.72;5085365;28;20040;-69
2022/03/23 05:01:46;;;;;;;11.55;8.68;;;;;;;4.36;40.16;100639.81;5085385;28;20056;-69
2022/03/23 05:04:15;;;;;;;15.55;10.45;;;;;;;3.80;40.09;100541.47;5085687;28;20048;-69
2022/03/23 05:06:46;;;;;;;18.52;10.52;;;;;;;4.41;40.20;100643.25;5085954;28;20047;-69
2022/03/23 05:09:16;;;;;;;16.65;9.23;;;;;;;4.39;41.06;100638.91;5085579;28;20251;-69
2022/03/23 05:11:47;;;;;;;14.73;10.07;;;;;;;4.34;41.53;100640.69;5085866;28;20040;-69
2022/03/23 05:14:17;;;;;;;11.65;9.10;;;;;;;4.36;40.53;100639.81;5085340;28;20216;-69
2022/03/23 05:16:46;;;;;;;16.27;11.05;;;;;;;4.33;41.36;100646.84;5085284;28;20288;-69
2022/03/23 05:19:16;;;;;;;15.18;10.57;;;;;;;4.40;40.26;100644.13;5067842;28;20044;-69
2022/03/23 05:21:47;;;;;;;14.52;10.75;;;;;;;4.42;40.79;100645.00;5086321;28;20028;-70
2022/03/23 05:24:17;;;;;;;20.27;10.52;;;;;;;4.05;40.89;100597.19;5071055;28;20044;-69
2022/03/23 05:26:48;;;;;;;16.05;10.55;;;;;;;4.40;40.40;100643.28;5088733;28;20040;-69
2022/03/23 05:29:17;;;;;;;14.63;10.18;;;;;;;4.39;40.99;100639.78;5088933;28;20242;-69
2022/03/23 05:31:47;;;;;;;11.63;9.50;;;;;;;4.43;40.57;100641.50;5088703;28;20070;-69
2022/03/23 05:34:17;;;;;;;13.43;10.07;;;;;;;4.52;40.80;100651.03;5088645;28;20037;-70
2022/03/23 05:36:47;;;;;;;16.30;11.43;;;;;;;4.55;40.56;100645.75;5088331;28;20048;-69
2022/03/23 05:39:17;;;;;;;19.38;12.07;;;;;;;4.29;40.28;100595.25;5088303;28;20135;-70
2022/03/23 05:41:49;;;;;;;14.77;10.77;;;;;;;4.60;41.00;100649.19;5088280;28;20108;-70
2022/03/23 05:44:18;;;;;;;20.23;12.35;;;;;;;4.62;40.40;100652.69;5071192;28;20107;-69
2022/03/23 05:46:48;;;;;;;17.52;11.00;;;;;;;4.61;40.83;100650.94;5070846;28;20044;-68
2022/03/23 05:49:18;;;;;;;22.98;11.73;;;;;;;4.65;40.64;100659.66;5089406;28;20060;-70
2022/03/23 05:51:48;;;;;;;19.40;11.30;;;;;;;4.39;40.52;100599.53;5070923;28;20051;-69
2022/03/23 05:54:18;;;;;;;19.70;12.05;;;;;;;3.88;40.69;100502.06;5070994;28;20052;-69
2022/03/23 05:56:50;;;;;;;19.13;11.20;;;;;;;2.40;40.25;100188.25;5088376;28;20200;-69
2022/03/23 05:59:20;;;;;;;18.92;12.65;;;;;;;5.45;39.58;100644.69;5088891;28;20040;-69
2022/03/23 06:01:51;;;;;;;21.48;13.52;;;;;;;3.89;38.61;100346.44;5071160;28;20076;-69
2022/03/23 06:04:19;;;;;;;23.00;13.30;;;;;;;3.31;38.22;100262.38;5072060;28;20086;-70
2022/03/23 06:06:52;;;;;;;17.13;12.50;;;;;;;6.82;37.30;100644.19;5072180;28;20036;-69
2022/03/23 06:09:25;;;;;;;20.42;14.35;;;;;;;7.38;36.40;100762.63;5090017;28;20327;-69
2022/03/23 06:11:57;;;;;;;15.60;12.98;;;;;;;8.00;35.92;100648.69;5089370;28;20041;-68
2022/03/23 06:14:25;;;;;;;18.75;14.73;;;;;;;8.59;34.81;100641.88;5088801;28;20123;-69
2022/03/23 06:16:55;;;;;;;17.52;13.27;;;;;;;8.67;34.12;100589.69;5088733;28;20048;-69
2022/03/23 06:19:25;;;;;;;18.75;14.07;;;;;;;9.11;33.88;100644.84;5088695;28;20040;-68
2022/03/23 06:21:55;;;;;;;20.23;14.20;;;;;;;8.75;33.74;100601.81;5087785;28;20090;-68
2022/03/23 06:24:25;;;;;;;23.83;13.93;;;;;;;9.27;33.37;100614.44;5088534;28;20040;-69
2022/03/23 06:26:57;;;;;;;17.00;14.23;;;;;;;9.65;32.10;100543.59;5088084;28;20040;-69
2022/03/23 06:29:27;;;;;;;19.30;15.38;;;;;;;11.27;31.03;100640.38;5070732;28;20048;-69
2022/03/23 06:31:57;;;;;;;22.73;16.40;;;;;;;12.25;29.74;100642.72;5069818;28;20040;-70
2022/03/23 06:34:27;;;;;;;21.52;14.43;;;;;;;12.87;28.78;100643.63;5087705;28;20206;-70
2022/03/23 06:36:58;;;;;;;21.45;14.73;;;;;;;12.96;28.81;100644.09;5087270;28;20047;-70
2022/03/23 06:39:27;;;;;;;18.65;14.93;;;;;;;12.43;29.83;100647.28;5069900;28;20304;-70
2022/03/23 06:42:00;;;;;;;17.42;13.70;;;;;;;10.38;30.26;100404.16;5087352;28;20108;-69
2022/03/23 06:44:32;;;;;;;21.38;15.60;;;;;;;11.18;31.71;100652.22;5087547;28;20040;-69
2022/03/23 06:47:05;;;;;;;21.48;14.65;;;;;;;9.62;32.50;100497.78;5087055;28;20094;-69
2022/03/23 06:49:37;;;;;;;18.73;15.48;;;;;;;9.99;33.60;100618.38;5086896;28;20041;-70
2022/03/23 06:52:10;;;;;;;32.97;20.55;;;;;;;9.44;34.21;100608.66;5086888;28;20051;-69
2022/03/23 06:54:42;;;;;;;22.27;18.17;;;;;;;9.87;34.49;100659.34;5087001;28;20062;-70
2022/03/23 06:57:16;;;;;;;23.63;17.52;;;;;;;9.08;34.80;100562.97;5086722;28;20051;-70
2022/03/23 06:59:48;;;;;;;20.10;16.45;;;;;;;9.89;34.71;100657.53;5086791;28;20047;-70
2022/03/23 07:02:21;;;;;;;22.05;16.85;;;;;;;9.92;34.36;100660.06;5086699;28;20045;-70
2022/03/23 07:04:55;;;;;;;25.42;18.67;;;;;;;9.67;34.41;100610.59;5086794;28;20059;-70
2022/03/23 07:07:28;;;;;;;23.63;17.83;;;;;;;10.07;34.14;100660.50;5086561;28;20043;-68
2022/03/23 07:09:59;;;;;;;21.98;16.98;;;;;;;9.71;34.12;100581.34;5086726;28;20048;-68
2022/03/23 07:12:33;;;;;;;22.73;17.02;;;;;;;10.12;33.51;100621.47;5069309;28;20040;-71
2022/03/23 07:15:06;;;;;;;25.20;18.77;;;;;;;10.40;33.44;100654.09;5086646;28;20044;-70
2022/03/23 07:17:38;;;;;;;24.50;18.40;;;;;;;10.52;33.26;100648.38;5086590;28;20044;-70
2022/03/23 07:20:12;;;;;;;32.10;17.35;;;;;;;10.72;32.95;100647.66;5068825;28;20044;-70
2022/03/23 07:22:44;;;;;;;24.38;17.83;;;;;;;10.65;32.43;100614.34;5086026;28;20052;-69
2022/03/23 07:25:17;;;;;;;22.67;17.65;;;;;;;11.05;32.27;100640.31;5086179;28;20252;-70
2022/03/23 07:27:51;;;;;;;18.40;15.65;;;;;;;10.97;31.73;100585.81;5086459;28;20032;-70
2022/03/23 07:30:26;;;;;;;20.27;14.63;;;;;;;11.52;30.97;100649.13;5086349;28;20094;-70
2022/03/23 07:32:59;;;;;;;20.38;14.90;;;;;;;11.65;30.84;100646.00;5086252;28;20048;-70
2022/03/23 07:35:31;;;;;;;16.95;12.82;;;;;;;11.57;29.70;100644.53;5086015;28;20040;-70
2022/03/23 07:38:03;;;;;;;19.75;16.40;;;;;;;11.52;30.54;100645.63;5086146;28;20040;-70
2022/03/23 07:40:36;;;;;;;18.23;15.52;;;;;;;11.63;30.18;100642.56;5086141;28;20100;-70
2022/03/23 07:43:09;;;;;;;21.02;15.57;;;;;;;10.45;29.91;100429.50;5085826;28;20052;-70
2022/03/23 07:45:42;;;;;;;16.02;12.40;;;;;;;11.84;29.80;100642.56;5068101;28;20100;-69
2022/03/23 07:48:15;;;;;;;21.60;14.02;;;;;;;11.98;29.57;100641.16;5085701;28;20037;-70
2022/03/23 07:50:47;;;;;;;13.98;11.27;;;;;;;12.12;28.81;100637.03;5085820;28;20040;-69
2022/03/23 07:53:20;;;;;;;16.08;11.20;;;;;;;11.88;29.09;100601.66;5068486;28;20037;-69
2022/03/23 07:55:53;;;;;;;19.17;12.73;;;;;;;12.18;29.06;100639.47;5085929;28;20103;-70
2022/03/23 07:58:28;;;;;;;22.42;13.02;;;;;;;12.47;28.57;100634.72;5085831;28;20047;-70
2022/03/23 08:01:01;;;;;;;16.70;12.18;;;;;;;12.56;27.87;100681.34;5085454;28;20061;-70
2022/03/23 08:03:34;;;;;;;18.30;13.95;;;;;;;12.56;28.35;100636.97;5084952;28;20090;-69
2022/03/23 08:06:07;;;;;;;18.17;13.82;;;;;;;12.61;28.67;100640.31;5068287;28;20037;-69
2022/03/23 08:08:39;;;;;;;17.00;13.35;;;;;;;12.49;27.72;100595.63;5085572;28;20048;-69
2022/03/23 08:11:12;;;;;;;21.40;14.35;;;;;;;12.69;28.19;100579.66;5068013;28;20300;-69
2022/03/23 08:13:46;;;;;;;15.55;13.10;;;;;;;12.43;28.18;100540.06;5085721;28;20108;-69
2022/03/23 08:16:19;;;;;;;13.48;12.07;;;;;;;13.15;28.00;100658.28;5084829;28;20099;-69
2022/03/23 08:18:53;;;;;;;16.75;12.07;;;;;;;13.01;28.24;100590.66;5068280;28;20048;-69
2022/03/23 08:21:26;;;;;;;16.17;12.20;;;;;;;13.36;27.96;100628.97;5068328;28;20044;-69
2022/03/23 08:23:59;;;;;;;17.75;12.18;;;;;;;13.10;28.04;100588.44;5085284;28;20078;-69
2022/03/23 08:26:31;;;;;;;26.88;15.15;;;;;;;13.51;27.97;100628.28;5085498;28;20075;-69
2022/03/23 08:29:05;;;;;;;17.10;12.65;;;;;;;13.69;27.45;100634.53;5085746;28;20036;-70
2022/03/23 08:31:38;;;;;;;15.13;11.77;;;;;;;13.84;26.73;100620.47;5084901;28;20334;-69
2022/03/23 08:34:10;;;;;;;15.20;11.32;;;;;;;13.99;26.65;100621.53;5067861;28;20319;-69
2022/03/23 08:36:42;;;;;;;19.13;12.95;;;;;;;14.03;26.03;100626.63;5084782;28;20055;-69
2022/03/23 08:39:15;;;;;;;15.70;11.52;;;;;;;13.86;26.68;100593.75;5067737;28;20040;-69
2022/03/23 08:41:47;;;;;;;17.52;11.68;;;;;;;14.09;26.63;100621.00;5085418;28;20063;-70
2022/03/23 08:44:21;;;;;;;17.13;13.23;;;;;;;14.38;26.26;100629.34;5085034;28;20041;-69
2022/03/23 08:46:54;;;;;;;21.77;14.75;;;;;;;14.71;26.63;100625.00;5067745;28;20093;-69
2022/03/23 08:49:24;;;;;;;18.50;12.88;;;;;;;14.96;26.10;100619.22;5084964;28;20308;-69
2022/03/23 08:51:54;;;;;;;18.05;13.18;;;;;;;15.07;25.47;100614.19;5084928;28;20105;-69
2022/03/23 08:54:24;;;;;;;16.98;11.70;;;;;;;15.13;25.71;100612.13;5085859;28;20040;-69
2022/03/23 08:56:54;;;;;;;17.55;13.27;;;;;;;15.17;24.96;100603.88;5088376;28;20048;-69
2022/03/23 08:59:26;;;;;;;17.77;11.55;;;;;;;15.27;25.59;100602.41;5089086;28;20047;-69
2022/03/23 09:01:55;;;;;;;14.27;11.50;;;;;;;10.33;25.99;99762.28;5071089;28;20060;-69
2022/03/23 09:04:25;;;;;;;14.27;11.23;;;;;;;15.38;25.34;100599.16;5088592;28;20090;-69
2022/03/23 09:06:55;;;;;;;14.57;10.70;;;;;;;15.52;25.49;100611.75;5088743;28;20036;-69
2022/03/23 09:09:25;;;;;;;13.63;11.90;;;;;;;15.26;25.06;100570.44;5088644;28;20103;-69
2022/03/23 09:11:55;;;;;;;14.50;11.18;;;;;;;15.26;25.52;100565.09;5088747;28;20216;-69
2022/03/23 09:14:27;;;;;;;14.23;11.20;;;;;;;15.53;25.20;100610.78;5088782;28;20122;-69
2022/03/23 09:16:55;;;;;;;17.45;13.25;;;;;;;15.79;25.18;100598.66;5087900;28;20211;-70
2022/03/23 09:19:25;;;;;;;13.90;10.38;;;;;;;15.92;24.99;100587.19;5088276;28;20192;-70
2022/03/23 09:21:56;;;;;;;13.88;12.00;;;;;;;16.08;24.90;100589.84;5088296;28;20040;-70
2022/03/23 09:24:26;;;;;;;12.75;11.30;;;;;;;15.31;25.34;100408.13;5071397;28;20038;-70
2022/03/23 09:26:56;;;;;;;13.88;10.77;;;;;;;16.44;24.89;100580.56;5088396;28;20040;-70
2022/03/23 09:29:27;;;;;;;14.50;11.63;;;;;;;15.53;24.85;100426.44;5071363;28;20202;-70
2022/03/23 09:31:56;;;;;;;16.63;13.32;;;;;;;16.81;24.63;100580.09;5088509;28;20103;-70
2022/03/23 09:34:27;;;;;;;14.85;13.35;;;;;;;16.92;24.52;100580.28;5088429;28;20040;-70
2022/03/23 09:39:46;;;;;;;16.52;13.80;;;;;;;16.59;24.22;100520.78;5070642;28;20312;-70
2022/03/23 09:42:18;;;;;;;16.60;12.30;;;;;;;16.54;24.37;100466.69;5088280;28;20056;-70
2022/03/23 09:44:55;;;;;;;14.82;12.35;;;;;;;17.23;23.79;100565.88;5070726;28;20056;-70
2022/03/23 09:47:27;;;;;;;22.60;13.15;;;;;;;17.35;24.27;100556.19;5088157;28;20063;-70
2022/03/23 09:50:00;;;;;;;14.57;13.02;;;;;;;17.40;24.19;100561.25;5088041;28;20033;-70
2022/03/23 09:52:32;;;;;;;21.48;13.65;;;;;;;17.48;24.03;100561.63;5088275;28;20040;-70
2022/03/23 09:55:06;;;;;;;15.60;12.98;;;;;;;17.39;24.16;100522.00;5088240;28;20090;-67
2022/03/23 09:57:38;;;;;;;15.20;13.30;;;;;;;17.65;24.14;100517.66;5070363;28;20040;-67
2022/03/23 10:00:13;;;;;;;14.00;12.60;;;;;;;18.01;23.67;100547.38;5088021;28;20360;-67
2022/03/23 10:03:16;;;;;;;16.90;12.25;;;;;;;18.10;22.49;100546.75;5066683;28;20048;-67
2022/03/23 10:06:42;;;;;;;18.67;12.68;;;;;;;18.21;22.77;100543.34;5028011;28;20079;-68
2022/03/23 10:10:05;;;;;;;12.68;10.77;;;;;;;17.73;22.93;100472.44;5006946;28;20058;-67
2022/03/23 10:13:20;;;;;;;13.70;11.32;;;;;;;18.23;23.10;100539.59;5006961;28;20245;-67
2022/03/23 10:16:53;;;;;;;12.43;10.73;;;;;;;18.24;22.77;100535.94;5067390;28;20048;-67
2022/03/23 10:19:25;;;;;;;16.00;12.50;;;;;;;18.42;23.73;100528.47;5067674;28;20041;-67
2022/03/23 10:21:56;;;;;;;14.38;12.23;;;;;;;18.70;23.32;100526.56;5067618;28;20048;-67
2022/03/23 10:24:35;;;;;;;16.08;12.55;;;;;;;18.75;22.54;100529.78;5066388;28;20072;-67
2022/03/23 10:27:10;;;;;;;13.88;11.77;;;;;;;18.73;23.22;100529.91;5049365;28;20083;-67
2022/03/23 10:29:47;;;;;;;16.40;12.60;;;;;;;18.34;22.33;100446.75;5067253;28;20041;-66
2022/03/23 10:32:22;;;;;;;13.85;11.80;;;;;;;18.55;22.81;100478.34;5066966;28;20212;-67
2022/03/23 10:34:55;;;;;;;15.40;11.43;;;;;;;18.97;22.53;100518.38;5066025;28;20045;-67
2022/03/23 10:37:30;;;;;;;14.25;11.32;;;;;;;19.05;22.87;100506.13;5066948;28;20087;-67
2022/03/23 10:40:07;;;;;;;19.08;13.43;;;;;;;19.16;22.72;100510.72;5067203;28;20209;-66
2022/03/23 10:42:42;;;;;;;18.20;13.45;;;;;;;18.99;22.49;100462.72;5066364;28;20234;-74
2022/03/23 10:45:19;;;;;;;15.30;13.35;;;;;;;19.37;22.24;100505.59;5066877;28;20064;-74
2022/03/23 10:47:53;;;;;;;16.70;13.35;;;;;;;19.49;21.50;100502.91;5066035;28;20045;-74
2022/03/23 10:50:26;;;;;;;17.48;13.48;;;;;;;19.39;22.00;100456.16;5066648;28;20267;-70
2022/03/23 10:53:01;;;;;;;14.48;11.32;;;;;;;19.27;22.13;100481.22;5066523;28;20232;-69
2022/03/23 10:55:37;;;;;;;15.88;11.73;;;;;;;19.39;22.17;100488.41;5066692;28;20068;-69
2022/03/23 10:58:21;;;;;;;16.45;11.77;;;;;;;19.39;21.71;100444.53;5065573;28;20094;-69
2022/03/23 11:01:00;;;;;;;14.53;11.90;;;;;;;19.25;21.08;100483.16;5068154;28;20040;-70
2022/03/23 11:03:48;;;;;;;14.35;11.07;;;;;;;19.20;21.45;100478.13;5086420;28;20036;-69
2022/03/23 11:06:28;;;;;;;13.77;11.40;;;;;;;19.10;21.11;100482.47;5086272;28;20103;-69
2022/03/23 11:15:46;;;;;;;14.38;11.35;;;;;;;18.68;21.88;100426.47;5086465;28;20284;-69
2022/03/23 11:18:07;;;;;;;14.10;12.57;;;;;;;19.63;20.65;100449.91;5085951;28;20334;-71
2022/03/23 11:20:45;;;;;;;12.23;10.93;;;;;;;19.56;20.90;100449.53;5085345;28;20045;-70
2022/03/23 11:23:23;;;;;;;12.75;11.15;;;;;;;19.62;21.05;100437.44;5085898;28;20073;-70
2022/03/23 11:25:57;;;;;;;13.27;11.25;;;;;;;19.65;21.48;100427.31;5068413;28;20048;-69
2022/03/23 11:28:32;;;;;;;13.80;11.75;;;;;;;19.68;21.67;100431.59;5068502;28;20119;-69
2022/03/23 11:31:06;;;;;;;13.13;11.68;;;;;;;19.65;21.63;100427.31;5068237;28;20096;-70
2022/03/23 11:33:39;;;;;;;15.63;11.27;;;;;;;19.40;21.46;100374.53;5067689;28;20045;-70
2022/03/23 11:36:13;;;;;;;14.77;11.20;;;;;;;19.77;21.50;100418.31;5085621;28;20045;-70
2022/03/23 11:38:48;;;;;;;;;;;;;;;19.84;20.03;100408.81;5086157;28;20033;-68
2022/03/23 11:41:21;;;;;;;12.45;10.20;;;;;;;19.79;20.95;100400.22;5067803;28;19916;-70
2022/03/23 11:43:53;;;;;;;13.98;10.70;;;;;;;19.77;21.27;100401.31;5084608;28;20062;-68
2022/03/23 11:46:26;;;;;;;13.38;10.20;;;;;;;19.43;20.71;100357.31;5085273;28;20040;-70
2022/03/23 11:49:08;;;;;;;14.15;10.30;;;;;;;19.46;20.33;100406.34;5085517;28;20204;-70
2022/03/23 11:52:03;;;;;;;15.15;10.82;;;;;;;19.40;20.41;100363.78;5067712;28;20051;-70
2022/03/23 11:58:15;;;;;;;12.40;10.45;;;;;;;19.84;20.22;100343.41;5085016;28;20037;-69
2022/03/23 12:00:51;;;;;;;13.27;10.35;;;;;;;18.77;20.52;100136.66;5084088;28;20177;-70
2022/03/23 12:03:48;;;;;;;13.50;10.32;;;;;;;20.40;20.00;100360.47;5084321;28;20097;-70
2022/03/23 12:06:21;;;;;;;13.98;11.55;;;;;;;20.53;19.97;100365.75;5085039;28;20048;-70